Terminal Aerodrome Forecast
Issued by NWS

Home | Current Version | Previous Version | Text Only | Print | Product List | Glossary Off
Versions: 1 2 3 4 5 6 7 8 9 10 11 12 13 14 15 16 17 18 19 20 21 22 23 24 25 26 27 28 29 30 31

399
FTUS43 KTOP 200958 AAA
TAFFOE
TAF AMD
KFOE 200958Z 2010/2106 11003KT 1/2SM FG OVC002
     FM201500 13005KT 3SM BR OVC003
     FM201900 16005KT P6SM BKN015=

USA.gov is the U.S. government's official web portal to all federal, state and local government web resources and services.